| time (UTC) | temp F | wind direction | speed MPH | gust MPH | rain 1hr in | rain 24hr in | rain mn in | humidity % | barometer mb |
| 20260831122123 | 79 | 252 | 4.0 | 7.0 | 0.00 | 0.00 | 0.00 | 66 | 1014.7 |
| 20260831121123 | 79 | 276 | 4.0 | 8.0 | 0.00 | 0.00 | 0.00 | 65 | 1014.3 |
| 20260831120123 | 79 | 217 | 4.0 | 6.0 | 0.00 | 0.00 | 0.00 | 65 | 1013.9 |
| 20260831115123 | 79 | 54 | 4.0 | 5.0 | 0.00 | 0.00 | 0.00 | 66 | 1013.7 |
| 20260831114123 | 79 | 55 | 3.0 | 5.0 | 0.00 | 0.00 | 0.00 | 66 | 1013.5 |
| 20260831113144 | 79 | 360 | 2.0 | 4.0 | 0.00 | 0.00 | 0.00 | 66 | 1013.4 |
| 20260831112123 | 78 | 360 | 4.0 | 6.0 | 0.00 | 0.00 | 0.00 | 67 | 1012.9 |
| 20260831111144 | 78 | 360 | 4.0 | 6.0 | 0.00 | 0.00 | 0.00 | 67 | 1012.9 |
| 20260831110123 | 78 | 1 | 4.0 | 6.0 | 0.00 | 0.00 | 0.00 | 67 | 1013.0 |
| 20260831105123 | 78 | 2 | 6.0 | 10.0 | 0.00 | 0.00 | 0.00 | 66 | 1013.1 |
| 20260831104123 | 77 | 2 | 9.0 | 14.0 | 0.00 | 0.00 | 0.00 | 66 | 1012.9 |
| 20260831103123 | 77 | 13 | 11.0 | 16.0 | 0.00 | 0.00 | 0.00 | 66 | 1012.6 |
| 20260831102122 | 77 | 15 | 10.0 | 16.0 | 0.00 | 0.00 | 0.00 | 66 | 1012.2 |
| 20260831101144 | 77 | 8 | 9.0 | 15.0 | 0.00 | 0.00 | 0.00 | 69 | 1012.3 |
| 20260831100122 | 76 | 10 | 12.0 | 19.0 | 0.00 | 0.00 | 0.00 | 71 | 1012.4 |
| 20260831095143 | 76 | 16 | 11.0 | 16.0 | 0.00 | 0.00 | 0.00 | 73 | 1012.6 |
| 20260831094122 | 76 | 63 | 12.0 | 18.0 | 0.00 | 0.00 | 0.00 | 72 | 1012.8 |
| 20260831093122 | 77 | 27 | 9.0 | 14.0 | 0.00 | 0.00 | 0.00 | 72 | 1012.6 |
| 20260831092122 | 78 | 24 | 12.0 | 19.0 | 0.00 | 0.00 | 0.00 | 70 | 1012.4 |
| 20260831091145 | 79 | 29 | 11.0 | 16.0 | 0.00 | 0.00 | 0.00 | 68 | 1012.9 |
| 20260831090122 | 79 | 26 | 11.0 | 15.0 | 0.00 | 0.00 | 0.00 | 68 | 1013.0 |
| 20260831085143 | 79 | 18 | 8.0 | 14.0 | 0.00 | 0.00 | 0.00 | 69 | 1013.3 |
| 20260831084122 | 78 | 31 | 7.0 | 11.0 | 0.00 | 0.00 | 0.00 | 70 | 1013.6 |
| 20260831083122 | 79 | 22 | 11.0 | 16.0 | 0.00 | 0.00 | 0.00 | 68 | 1013.4 |
| 20260831082122 | 81 | 41 | 12.0 | 19.0 | 0.00 | 0.00 | 0.00 | 62 | 1013.3 |
| 20260831081122 | 82 | 122 | 6.0 | 10.0 | 0.00 | 0.00 | 0.00 | 57 | 1014.0 |
| 20260831080123 | 81 | 34 | 11.0 | 18.0 | 0.00 | 0.00 | 0.00 | 57 | 1013.0 |
| 20260831075143 | 80 | 21 | 17.0 | 27.0 | 0.00 | 0.00 | 0.00 | 60 | 1012.5 |
| 20260831074122 | 80 | 19 | 12.0 | 20.0 | 0.00 | 0.00 | 0.00 | 62 | 1012.8 |
| 20260831073122 | 81 | 7 | 16.0 | 27.0 | 0.00 | 0.00 | 0.00 | 62 | 1013.0 |
| 20260831072123 | 81 | 16 | 20.0 | 32.0 | 0.00 | 0.00 | 0.00 | 61 | 1013.0 |
| 20260831071122 | 82 | 10 | 14.0 | 29.0 | 0.00 | 0.00 | 0.00 | 60 | 1013.2 |
| 20260831070122 | 83 | 18 | 13.0 | 21.0 | 0.00 | 0.00 | 0.00 | 60 | 1013.4 |
| 20260831065122 | 84 | 17 | 14.0 | 22.0 | 0.00 | 0.00 | 0.00 | 58 | 1013.3 |
| 20260831064123 | 84 | 12 | 14.0 | 20.0 | 0.00 | 0.00 | 0.00 | 56 | 1013.3 |
| 20260831063123 | 85 | 18 | 12.0 | 20.0 | 0.00 | 0.00 | 0.00 | 52 | 1013.5 |
| 20260831062143 | 85 | 12 | 14.0 | 21.0 | 0.00 | 0.00 | 0.00 | 51 | 1013.0 |
| 20260831061143 | 85 | 337 | 9.0 | 14.0 | 0.00 | 0.00 | 0.00 | 51 | 1012.9 |
| 20260831060122 | 87 | 327 | 9.0 | 19.0 | 0.00 | 0.00 | 0.00 | 51 | 1012.9 |
| 20260831055122 | 87 | 5 | 4.0 | 6.0 | 0.00 | 0.00 | 0.00 | 51 | 1012.1 |
| 20260831054144 | 87 | 336 | 4.0 | 8.0 | 0.00 | 0.00 | 0.00 | 51 | 1012.3 |
| 20260831053123 | 87 | 313 | 2.0 | 5.0 | 0.00 | 0.00 | 0.00 | 52 | 1012.3 |
| 20260831052122 | 87 | 330 | 3.0 | 5.0 | 0.00 | 0.00 | 0.00 | 52 | 1012.3 |
| 20260831051123 | 87 | 345 | 8.0 | 13.0 | 0.00 | 0.00 | 0.00 | 51 | 1012.2 |
| 20260831050122 | 88 | 325 | 5.0 | 10.0 | 0.00 | 0.00 | 0.00 | 53 | 1012.3 |
| 20260831045122 | 89 | 328 | 11.0 | 17.0 | 0.00 | 0.00 | 0.00 | 51 | 1012.3 |
| 20260831044143 | 90 | 339 | 6.0 | 12.0 | 0.00 | 0.00 | 0.00 | 47 | 1011.9 |
| 20260831043122 | 91 | 342 | 10.0 | 16.0 | 0.00 | 0.00 | 0.00 | 46 | 1011.6 |
| 20260831042122 | 92 | 313 | 8.0 | 16.0 | 0.00 | 0.00 | 0.00 | 43 | 1011.5 |
| 20260831041122 | 92 | 300 | 7.0 | 16.0 | 0.00 | 0.00 | 0.00 | 41 | 1011.7 |
| 20260831040123 | 97 | 314 | 14.0 | 22.0 | 0.00 | 0.00 | 0.00 | 36 | 1011.5 |
| 20260831035122 | 98 | 319 | 3.0 | 5.0 | 0.00 | 0.00 | 0.00 | 33 | 1010.8 |
| 20260831034122 | 98 | 323 | 2.0 | 4.0 | 0.00 | 0.00 | 0.00 | 33 | 1010.7 |
| 20260831033123 | 98 | 321 | 1.0 | 2.0 | 0.00 | 0.00 | 0.00 | 33 | 1010.6 |
| 20260831032143 | 98 | 321 | 2.0 | 2.0 | 0.00 | 0.00 | 0.00 | 33 | 1010.5 |
| 20260831031122 | 99 | 321 | 2.0 | 3.0 | 0.00 | 0.00 | 0.00 | 32 | 1010.5 |
| 20260831030122 | 99 | 321 | 2.0 | 4.0 | 0.00 | 0.00 | 0.00 | 32 | 1010.3 |
| 20260831025143 | 99 | 321 | 1.0 | 3.0 | 0.00 | 0.00 | 0.00 | 32 | 1010.2 |
| 20260831024143 | 99 | 332 | 1.0 | 3.0 | 0.00 | 0.00 | 0.00 | 32 | 1010.0 |
| 20260831023123 | 99 | 321 | 2.0 | 4.0 | 0.00 | 0.00 | 0.00 | 32 | 1009.8 |
| 20260831022122 | 99 | 324 | 3.0 | 4.0 | 0.00 | 0.00 | 0.00 | 32 | 1009.7 |
| 20260831021122 | 99 | 321 | 3.0 | 5.0 | 0.00 | 0.00 | 0.00 | 32 | 1009.5 |
| 20260831020122 | 99 | 341 | 2.0 | 5.0 | 0.00 | 0.00 | 0.00 | 31 | 1009.5 |
| 20260831015143 | 99 | 321 | 3.0 | 6.0 | 0.00 | 0.00 | 0.00 | 31 | 1009.3 |
| 20260831014123 | 100 | 328 | 5.0 | 9.0 | 0.00 | 0.00 | 0.00 | 31 | 1009.1 |
| 20260831013122 | 100 | 330 | 3.0 | 7.0 | 0.00 | 0.00 | 0.00 | 30 | 1008.9 |
| 20260831012122 | 100 | 315 | 6.0 | 10.0 | 0.00 | 0.00 | 0.00 | 30 | 1008.9 |
| 20260831011122 | 101 | 314 | 5.0 | 9.0 | 0.00 | 0.00 | 0.00 | 30 | 1009.0 |
| 20260831010122 | 100 | 260 | 2.0 | 4.0 | 0.00 | 0.00 | 0.00 | 30 | 1009.1 |
| 20260831005122 | 100 | 285 | 2.0 | 7.0 | 0.00 | 0.00 | 0.00 | 30 | 1009.0 |
| 20260831004122 | 101 | 253 | 3.0 | 7.0 | 0.00 | 0.00 | 0.00 | 30 | 1009.3 |
| 20260831003122 | 101 | 172 | 4.0 | 8.0 | 0.00 | 0.00 | 0.00 | 29 | 1009.3 |
| 20260831002123 | 101 | 207 | 4.0 | 8.0 | 0.00 | 0.00 | 0.00 | 29 | 1009.4 |
| 20260831001122 | 102 | 316 | 7.0 | 11.0 | 0.00 | 0.00 | 0.00 | 28 | 1009.4 |
| 20260831000122 | 101 | 301 | 5.0 | 11.0 | 0.00 | 0.00 | 0.00 | 29 | 1009.4 |
| 20260830235122 | 102 | 295 | 5.0 | 8.0 | 0.00 | 0.00 | 0.00 | 28 | 1009.4 |
| 20260830234123 | 102 | 319 | 3.0 | 8.0 | 0.00 | 0.00 | 0.00 | 28 | 1009.6 |
| 20260830233144 | 101 | 307 | 3.0 | 7.0 | 0.00 | 0.00 | 0.00 | 29 | 1009.6 |
| 20260830232122 | 101 | 260 | 6.0 | 12.0 | 0.00 | 0.00 | 0.00 | 29 | 1009.7 |
| 20260830231122 | 101 | 309 | 4.0 | 10.0 | 0.00 | 0.00 | 0.00 | 28 | 1009.8 |
| 20260830230122 | 102 | 194 | 4.0 | 9.0 | 0.00 | 0.00 | 0.00 | 28 | 1009.9 |
| 20260830225144 | 103 | 303 | 9.0 | 14.0 | 0.00 | 0.00 | 0.00 | 28 | 1010.1 |
| 20260830224144 | 102 | 313 | 6.0 | 13.0 | 0.00 | 0.00 | 0.00 | 30 | 1010.2 |
| 20260830223122 | 101 | 285 | 5.0 | 9.0 | 0.00 | 0.00 | 0.00 | 30 | 1010.5 |
| 20260830222143 | 101 | 273 | 3.0 | 8.0 | 0.00 | 0.00 | 0.00 | 30 | 1010.6 |
| 20260830221122 | 101 | 298 | 4.0 | 10.0 | 0.00 | 0.00 | 0.00 | 30 | 1010.8 |
| 20260830220122 | 101 | 287 | 6.0 | 12.0 | 0.00 | 0.00 | 0.00 | 30 | 1010.9 |
| 20260830215122 | 102 | 302 | 6.0 | 13.0 | 0.00 | 0.00 | 0.00 | 29 | 1011.2 |
| 20260830214122 | 102 | 169 | 3.0 | 5.0 | 0.00 | 0.00 | 0.00 | 30 | 1011.4 |
| 20260830213122 | 100 | 168 | 3.0 | 6.0 | 0.00 | 0.00 | 0.00 | 31 | 1011.6 |
| 20260830212122 | 100 | 149 | 3.0 | 10.0 | 0.00 | 0.00 | 0.00 | 32 | 1011.8 |
| 20260830211122 | 100 | 208 | 3.0 | 6.0 | 0.00 | 0.00 | 0.00 | 31 | 1012.0 |
| 20260830210143 | 100 | 255 | 6.0 | 10.0 | 0.00 | 0.00 | 0.00 | 31 | 1012.2 |
| 20260830205143 | 101 | 126 | 4.0 | 8.0 | 0.00 | 0.00 | 0.00 | 31 | 1012.4 |
| 20260830204123 | 100 | 150 | 7.0 | 13.0 | 0.00 | 0.00 | 0.00 | 31 | 1012.5 |
| 20260830203122 | 99 | 212 | 2.0 | 5.0 | 0.00 | 0.00 | 0.00 | 33 | 1012.8 |
| 20260830202122 | 99 | 261 | 7.0 | 12.0 | 0.00 | 0.00 | 0.00 | 33 | 1013.0 |
| 20260830201123 | 99 | 298 | 4.0 | 14.0 | 0.00 | 0.00 | 0.00 | 34 | 1013.0 |
| 20260830200123 | 98 | 260 | 3.0 | 9.0 | 0.00 | 0.00 | 0.00 | 34 | 1013.2 |
| 20260830195123 | 98 | 157 | 2.0 | 7.0 | 0.00 | 0.00 | 0.00 | 34 | 1013.4 |
| 20260830194144 | 98 | 290 | 4.0 | 10.0 | 0.00 | 0.00 | 0.00 | 35 | 1013.5 |
| 20260830193124 | 98 | 289 | 4.0 | 9.0 | 0.00 | 0.00 | 0.00 | 34 | 1013.6 |
| 20260830192123 | 98 | 283 | 7.0 | 13.0 | 0.00 | 0.00 | 0.00 | 33 | 1013.9 |
| 20260830191144 | 97 | 249 | 7.0 | 12.0 | 0.00 | 0.00 | 0.00 | 35 | 1014.0 |
| 20260830190123 | 98 | 135 | 4.0 | 7.0 | 0.00 | 0.00 | 0.00 | 35 | 1014.2 |
| 20260830185144 | 97 | 254 | 5.0 | 12.0 | 0.00 | 0.00 | 0.00 | 35 | 1014.3 |
| 20260830184123 | 96 | 267 | 7.0 | 12.0 | 0.00 | 0.00 | 0.00 | 35 | 1014.4 |
| 20260830183123 | 96 | 272 | 3.0 | 11.0 | 0.00 | 0.00 | 0.00 | 36 | 1014.7 |
| 20260830182123 | 97 | 214 | 8.0 | 11.0 | 0.00 | 0.00 | 0.00 | 35 | 1014.8 |
| 20260830181123 | 97 | 240 | 6.0 | 11.0 | 0.00 | 0.00 | 0.00 | 35 | 1014.9 |
| 20260830180123 | 96 | 188 | 5.0 | 9.0 | 0.00 | 0.00 | 0.00 | 36 | 1015.0 |
| 20260830175123 | 95 | 195 | 8.0 | 13.0 | 0.00 | 0.00 | 0.00 | 36 | 1015.2 |
| 20260830174123 | 95 | 132 | 7.0 | 14.0 | 0.00 | 0.00 | 0.00 | 37 | 1015.2 |
| 20260830173123 | 95 | 185 | 6.0 | 12.0 | 0.00 | 0.00 | 0.00 | 36 | 1015.3 |
| 20260830172124 | 95 | 204 | 5.0 | 11.0 | 0.00 | 0.00 | 0.00 | 36 | 1015.3 |
| 20260830171123 | 94 | 138 | 6.0 | 9.0 | 0.00 | 0.00 | 0.00 | 37 | 1015.3 |
| 20260830170123 | 93 | 245 | 6.0 | 11.0 | 0.00 | 0.00 | 0.00 | 38 | 1015.4 |
| 20260830165123 | 93 | 243 | 7.0 | 11.0 | 0.00 | 0.00 | 0.00 | 38 | 1015.2 |
| 20260830164123 | 93 | 238 | 6.0 | 13.0 | 0.00 | 0.00 | 0.00 | 38 | 1015.3 |
| 20260830163123 | 93 | 219 | 6.0 | 13.0 | 0.00 | 0.00 | 0.00 | 38 | 1015.3 |
| 20260830162123 | 93 | 247 | 7.0 | 13.0 | 0.00 | 0.00 | 0.00 | 38 | 1015.3 |
| 20260830161123 | 92 | 112 | 7.0 | 13.0 | 0.00 | 0.00 | 0.00 | 38 | 1015.3 |
| 20260830160124 | 92 | 124 | 9.0 | 13.0 | 0.00 | 0.00 | 0.00 | 38 | 1015.3 |
| 20260830155144 | 91 | 127 | 8.0 | 13.0 | 0.00 | 0.00 | 0.00 | 38 | 1015.3 |
| 20260830154123 | 92 | 127 | 8.0 | 14.0 | 0.00 | 0.00 | 0.00 | 39 | 1015.3 |
| 20260830153145 | 91 | 130 | 9.0 | 14.0 | 0.00 | 0.00 | 0.00 | 39 | 1015.4 |
| 20260830152144 | 91 | 118 | 8.0 | 12.0 | 0.00 | 0.00 | 0.00 | 40 | 1015.3 |
| 20260830151124 | 90 | 115 | 9.0 | 14.0 | 0.00 | 0.00 | 0.00 | 40 | 1015.4 |
| 20260830150124 | 90 | 139 | 9.0 | 15.0 | 0.00 | 0.00 | 0.00 | 40 | 1015.4 |
| 20260830145123 | 90 | 138 | 10.0 | 17.0 | 0.00 | 0.00 | 0.00 | 41 | 1015.5 |
| 20260830144144 | 89 | 118 | 9.0 | 13.0 | 0.00 | 0.00 | 0.00 | 41 | 1015.4 |
| 20260830143123 | 88 | 157 | 6.0 | 10.0 | 0.00 | 0.00 | 0.00 | 43 | 1015.5 |
| 20260830142123 | 87 | 165 | 5.0 | 10.0 | 0.00 | 0.00 | 0.00 | 45 | 1015.3 |
| 20260830141144 | 87 | 140 | 4.0 | 9.0 | 0.00 | 0.00 | 0.00 | 45 | 1015.1 |
| 20260830140123 | 86 | 138 | 2.0 | 4.0 | 0.00 | 0.00 | 0.00 | 47 | 1015.1 |
| 20260830135124 | 85 | 138 | 1.0 | 3.0 | 0.00 | 0.00 | 0.00 | 48 | 1015.1 |
| 20260830134144 | 84 | 138 | 2.0 | 3.0 | 0.00 | 0.00 | 0.00 | 50 | 1015.0 |
| 20260830133124 | 84 | 138 | 1.0 | 3.0 | 0.00 | 0.00 | 0.00 | 49 | 1014.8 |
| 20260830132123 | 84 | 138 | 2.0 | 4.0 | 0.00 | 0.00 | 0.00 | 50 | 1014.5 |
| 20260830131124 | 84 | 138 | 3.0 | 5.0 | 0.00 | 0.00 | 0.00 | 50 | 1014.4 |
| 20260830130123 | 84 | 129 | 4.0 | 8.0 | 0.00 | 0.00 | 0.00 | 51 | 1014.1 |
| 20260830125123 | 83 | 44 | 2.0 | 5.0 | 0.00 | 0.00 | 0.00 | 52 | 1014.0 |
| 20260830124124 | 83 | 53 | 3.0 | 7.0 | 0.00 | 0.00 | 0.00 | 53 | 1013.8 |
| 20260830123123 | 83 | 58 | 3.0 | 6.0 | 0.00 | 0.00 | 0.00 | 53 | 1013.5 |